Tiempo atmosférico en la estación meteorológica de Sena de Luna, Miñera, León (1120 m.)



Fecha
DESCASC
Temp. máxima en grados centígrados (hora)
DESCASC
Temp. mínima en grados centígrados (hora)
DESCASC
Temp. media en grados centígrados
DESCASC
Racha de viento máxima en m/sg (hora)
DESCASC
Velocidad máxima media en intervalos de 10 minutos(hora)
DESCASC
Precipitaciones diarias en mm
DESCASC
Precipitaciones de 00:00 a 06:00 en mm
DESCASC
Precipitaciones de 06:00 a 12:00 en mm
DESCASC
Precipitaciones de 12:00 a 18:00 en mm
DESCASC
Precipitaciones de 18:00 a 24:00 en mm
DESCASC

Gráficas

Temp. máximas Temp. mínimas Temp. medias Precipitaciones Rachas de viento máximas Velocidades máximas media en intervalos de 10 minutos

Datos horarios

Fecha y hora oficial Temperatura (ºC) Velocidad del viento (km/h) Dirección del viento Racha (km/h) Dirección de racha Precipitación (mm) Presión (hPa) Tendencia (hPa) Humedad (%)
2019-08-24 23:00:00 18.3 5 Nordeste 9 Norte 0 -- -- 56
2019-08-24 22:00:00 20 3 Nordeste 11 Noroeste 0 -- -- 51
2019-08-24 21:00:00 22.4 5 Noroeste 19 Noroeste 0 -- -- 45
2019-08-24 20:00:00 25.3 9 Noroeste 22 Norte 0 -- -- 39
2019-08-24 19:00:00 28.2 10 Sur 26 Sudoeste 0 -- -- 34
2019-08-24 18:00:00 28.8 13 Sudoeste 28 Sur 0 -- -- 32
2019-08-24 17:00:00 28.7 10 Sudoeste 35 Sur 0 -- -- 32
2019-08-24 16:00:00 28.6 11 Sur 29 Sudoeste 0 -- -- 32
2019-08-24 15:00:00 29.4 8 Sudoeste 26 Sur 0 -- -- 31
2019-08-24 14:00:00 28.3 10 Sur 35 Sur 0 -- -- 33
2019-08-24 13:00:00 28.1 9 Sur 19 Sur 0 -- -- 31
2019-08-24 12:00:00 25.8 6 Sur 9 Sur 0 -- -- 38
2019-08-24 11:00:00 21.8 3 Sur 7 Sudoeste 0 -- -- 48
2019-08-24 10:00:00 19.5 2 Sur 6 Sudoeste 0 -- -- 56
2019-08-24 09:00:00 13.6 0 Calma 14 Norte 0 -- -- 81
2019-08-24 08:00:00 11.1 0 Calma 12 Norte 0 -- -- 88
2019-08-24 07:00:00 11.3 5 Norte 13 Norte 0 -- -- 87
2019-08-24 06:00:00 11.8 4 Norte 10 Norte 0 -- -- 83
2019-08-24 05:00:00 13 3 Nordeste 12 Norte 0 -- -- 79
2019-08-24 04:00:00 13.7 3 Norte 8 Norte 0 -- -- 75
2019-08-24 03:00:00 14.8 2 Nordeste 12 Norte 0 -- -- 71
2019-08-24 02:00:00 16.2 7 Norte 14 Norte 0 -- -- 67
2019-08-24 01:00:00 17.2 5 Norte 15 Norte 0 -- -- 63
2019-08-24 00:00:00 18.4 3 Oeste 12 Norte 0 -- -- 59
2019-08-23 23:00:00 19.5 8 Norte 13 Norte 0 -- -- 57
2019-08-23 22:00:00 21.7 8 Norte 21 Norte 0 -- -- 49
2019-08-23 21:00:00 23.3 10 Norte 18 Norte 0 -- -- 43
2019-08-23 20:00:00 25.4 10 Norte 23 Norte 0 -- -- 37
2019-08-23 19:00:00 27.4 14 Norte 23 Noroeste 0 -- -- 33
2019-08-23 18:00:00 30.6 3 Noroeste 12 Sudoeste 0 -- -- 28
2019-08-23 17:00:00 30.7 8 Sudoeste 18 Oeste 0 -- -- 25
2019-08-23 16:00:00 30.6 6 Sudoeste 14 Sudoeste 0 -- -- 25
2019-08-23 15:00:00 29.8 5 Sudeste 13 Sur 0 -- -- 25
2019-08-23 14:00:00 28.7 9 Sur 17 Sur 0 -- -- 28
2019-08-23 13:00:00 27 7 Sur 12 Sudeste 0 -- -- 29
2019-08-23 12:00:00 23 4 Sudoeste 8 Sur 0 -- -- 36
2019-08-23 11:00:00 19.2 4 Sudoeste 10 Noroeste 0 -- -- 44
2019-08-23 10:00:00 16.7 7 Norte 13 Norte 0 -- -- 51
2019-08-23 09:00:00 11.7 6 Norte 16 Norte 0 -- -- 69
2019-08-23 08:00:00 7.9 10 Norte 17 Norte 0 -- -- 86
2019-08-23 07:00:00 8.2 9 Norte 16 Noroeste 0 -- -- 86
2019-08-23 06:00:00 8.7 9 Norte 15 Norte 0 -- -- 81
2019-08-23 05:00:00 9.6 9 Norte 13 Norte 0 -- -- 79
2019-08-23 04:00:00 9.7 5 Norte 12 Norte 0 -- -- 76
2019-08-23 03:00:00 11.2 3 Norte 9 Norte 0 -- -- 64
2019-08-23 02:00:00 12.6 4 Noroeste 9 Noroeste 0 -- -- 62
2019-08-23 01:00:00 13.4 2 Nordeste 5 Este 0 -- -- 54
2019-08-23 00:00:00 14.5 0 Calma 8 Norte 0 -- -- 53
2019-08-22 23:00:00 16 2 Nordeste 6 Nordeste 0 -- -- 50
2019-08-22 22:00:00 17.7 4 Este 9 Sudoeste 0 -- -- 40
2019-08-22 21:00:00 22.9 8 Sudoeste 20 Sur 0 -- -- 31
2019-08-22 20:00:00 25.2 15 Sur 23 Sur 0 -- -- 28
2019-08-22 19:00:00 26.9 13 Sudoeste 18 Sur 0 -- -- 29
2019-08-22 18:00:00 27.6 9 Sur 19 Sur 0 -- -- 27
2019-08-22 17:00:00 27.9 12 Sur 20 Sudoeste 0 -- -- 29
2019-08-22 16:00:00 27.7 11 Sur 20 Sur 0 -- -- 30
2019-08-22 15:00:00 26.9 9 Sur 18 Sudoeste 0 -- -- 32
2019-08-22 14:00:00 26.3 8 Sur 16 Sur 0 -- -- 31
2019-08-22 13:00:00 24.6 10 Sur 13 Sur 0 -- -- 40
2019-08-22 12:00:00 22.6 5 Sur 9 Sur 0 -- -- 41
2019-08-22 11:00:00 18.3 4 Sudoeste 8 Sudoeste 0 -- -- 60
2019-08-22 10:00:00 16.2 3 Noroeste 13 Noroeste 0 -- -- 70
2019-08-22 09:00:00 11 11 Norte 14 Norte 0 -- -- 92
2019-08-22 08:00:00 7.9 8 Norte 15 Norte 0 -- -- 100
2019-08-22 07:00:00 8.1 10 Norte 16 Norte 0 -- -- 100
2019-08-22 06:00:00 8.5 8 Norte 14 Norte 0 -- -- 100
2019-08-22 05:00:00 9.3 7 Norte 10 Norte 0 -- -- 99
2019-08-22 04:00:00 10.3 0 Calma 7 Norte 0 -- -- 96
2019-08-22 03:00:00 10.8 0 Calma 11 Norte 0 -- -- 93
2019-08-22 02:00:00 11.2 5 Norte 12 Norte 0 -- -- 92
2019-08-22 01:00:00 12.2 9 Norte 13 Noroeste 0 -- -- 91
2019-08-22 00:00:00 13.7 6 Noroeste 14 Noroeste 0 -- -- 86
2019-08-21 23:00:00 14.3 4 Norte 15 Noroeste 0 -- -- 77
2019-08-21 22:00:00 15.5 6 Noroeste 17 Noroeste 0 -- -- 71
2019-08-21 21:00:00 17.8 10 Noroeste 24 Noroeste 0 -- -- 62
2019-08-21 20:00:00 20.2 14 Noroeste 29 Noroeste 0 -- -- 54
2019-08-21 19:00:00 23.1 13 Noroeste 28 Noroeste 0 -- -- 46
2019-08-21 18:00:00 26.8 10 Norte 25 Norte 0 -- -- 34
2019-08-21 17:00:00 28.2 9 Sudoeste 17 Sudoeste 0 -- -- 25
2019-08-21 16:00:00 27.3 6 Sudoeste 12 Sudoeste 0 -- -- 23
2019-08-21 15:00:00 26 5 Sur 11 Sur 0 -- -- 28
2019-08-21 14:00:00 24.6 4 Sur 10 Sudoeste 0 -- -- 39
2019-08-21 13:00:00 21.5 6 Sur 9 Sur 0 -- -- 46
2019-08-21 12:00:00 19.3 4 Sudoeste 9 Sur 0 -- -- 57
2019-08-21 11:00:00 15.9 6 Oeste 10 Sudoeste 0 -- -- 67
2019-08-21 10:00:00 12.7 4 Noroeste 14 Norte 0 -- -- 86
2019-08-21 09:00:00 10.4 9 Norte 12 Norte 0 -- -- 96
2019-08-21 08:00:00 9.1 8 Norte 15 Norte 0 -- -- 100
2019-08-21 07:00:00 9.5 3 Norte 8 Nordeste 0 -- -- 100
2019-08-21 06:00:00 9.3 2 Nordeste 8 Este 0 -- -- 99
2019-08-21 05:00:00 9.9 2 Sudoeste 5 Nordeste 0 -- -- 99
2019-08-21 04:00:00 9.8 2 Nordeste 6 Este 0 -- -- 98
2019-08-21 03:00:00 10.5 0 Calma 9 Norte 0 -- -- 97
2019-08-21 02:00:00 10.2 2 Nordeste 8 Norte 0 -- -- 95
2019-08-21 01:00:00 10.9 0 Calma 6 Este 0 -- -- 91
2019-08-21 00:00:00 12.1 0 Calma 5 Noroeste 0 -- -- 86
2019-08-20 23:00:00 13.1 0 Calma 5 Norte 0 -- -- 81
2019-08-20 22:00:00 14.5 2 Norte 10 Nordeste 0 -- -- 75
2019-08-20 21:00:00 17.3 5 Noroeste 13 Noroeste 0 -- -- 63
2019-08-20 20:00:00 20.6 5 Oeste 14 Oeste 0 -- -- 54
2019-08-20 19:00:00 23 7 Oeste 17 Noroeste 0 -- -- 45
2019-08-20 18:00:00 24.1 5 Norte 17 Noroeste 0 -- -- 41
2019-08-20 17:00:00 24.8 5 Oeste 21 Noroeste 0 -- -- 38
2019-08-20 16:00:00 23.6 8 Oeste 19 Noroeste 0 -- -- 41
2019-08-20 15:00:00 22.7 7 Oeste 22 Oeste 0 -- -- 41
2019-08-20 14:00:00 21 10 Oeste 26 Oeste 0 -- -- 42
2019-08-20 13:00:00 19.6 12 Noroeste 29 Norte 0 -- -- 49
2019-08-20 12:00:00 17.6 16 Noroeste 28 Noroeste 0 -- -- 52
2019-08-20 11:00:00 16.5 18 Norte 40 Norte 0 -- -- 56
2019-08-20 10:00:00 15.6 16 Noroeste 35 Noroeste 0 -- -- 61
2019-08-20 09:00:00 13.5 14 Norte 26 Norte 0 -- -- 74
2019-08-20 08:00:00 11.2 13 Norte 31 Noroeste 0 -- -- 86
2019-08-20 07:00:00 11.2 14 Norte 25 Norte 0 -- -- 86
2019-08-20 06:00:00 11.1 14 Norte 21 Norte 0 -- -- 86
2019-08-20 05:00:00 10.9 15 Norte 33 Norte 0 -- -- 87
2019-08-20 04:00:00 10.5 13 Norte 24 Nordeste 0 -- -- 87
2019-08-20 03:00:00 10.8 9 Noroeste 24 Norte 0 -- -- 86
2019-08-20 02:00:00 11.6 12 Norte 27 Norte 0 -- -- 82
2019-08-20 01:00:00 11.6 8 Noroeste 23 Norte 0 -- -- 84
2019-08-20 00:00:00 11.7 11 Noroeste 25 Norte 0 -- -- 83
2019-08-19 23:00:00 11.6 12 Noroeste 28 Norte 0 -- -- 84
2019-08-19 22:00:00 11.9 21 Norte 31 Norte 0 -- -- 83
2019-08-19 21:00:00 12.2 17 Norte 37 Norte 0 -- -- 83
2019-08-19 20:00:00 12.7 22 Norte 35 Norte 0 -- -- 81
2019-08-19 19:00:00 16 13 Norte 30 Noroeste 0 -- -- 65
2019-08-19 18:00:00 19.1 13 Noroeste 23 Noroeste 0 -- -- 54
2019-08-19 17:00:00 21.9 9 Noroeste 20 Norte 0 -- -- 45
2019-08-19 16:00:00 22.2 10 Oeste 21 Oeste 0 -- -- 45
2019-08-19 15:00:00 20.8 9 Oeste 22 Noroeste 0 -- -- 48
2019-08-19 14:00:00 19.9 10 Norte 19 Norte 0 -- -- 51
2019-08-19 13:00:00 18.3 7 Oeste 17 Noroeste 0 -- -- 56
2019-08-19 12:00:00 15.3 6 Oeste 14 Noroeste 0 -- -- 68
2019-08-19 11:00:00 14.3 6 Noroeste 14 Noroeste 0 -- -- 72
2019-08-19 10:00:00 12.7 5 Oeste 13 Noroeste 0 -- -- 78
2019-08-19 09:00:00 11 3 Noroeste 13 Noroeste 0 -- -- 81
2019-08-19 08:00:00 9.3 3 Noroeste 15 Noroeste 0 -- -- 88
2019-08-19 07:00:00 8.3 5 Noroeste 12 Norte 0 -- -- 91
2019-08-19 06:00:00 8 9 Norte 13 Norte 0 -- -- 89
2019-08-19 05:00:00 8.2 8 Norte 14 Norte 0 -- -- 91
2019-08-19 04:00:00 8.7 10 Norte 18 Noroeste 0 -- -- 87
2019-08-19 03:00:00 9 11 Norte 20 Noroeste 0 -- -- 86
2019-08-19 02:00:00 8.7 10 Norte 15 Norte 0 -- -- 87
2019-08-19 01:00:00 10.1 12 Norte 18 Norte 0 -- -- 84
2019-08-19 00:00:00 10.7 11 Norte 20 Norte 0 -- -- 85
2019-08-18 23:00:00 11 10 Noroeste 18 Noroeste 0 -- -- 88
2019-08-18 22:00:00 12.7 7 Noroeste 20 Noroeste 0 -- -- 83
2019-08-18 21:00:00 14.3 9 Norte 23 Noroeste 0 -- -- 78
2019-08-18 20:00:00 17.8 8 Noroeste 21 Norte 0 -- -- 68
2019-08-18 19:00:00 19.7 8 Noroeste 20 Noroeste 0 -- -- 63
2019-08-18 18:00:00 22.3 8 Noroeste 15 Oeste 0 -- -- 58
2019-08-18 17:00:00 20.5 5 Sur 9 Sudoeste 0 -- -- 71
2019-08-18 16:00:00 20.1 3 Oeste 9 Noroeste 0.4 -- -- 77
2019-08-18 15:00:00 16.2 5 Noroeste 22 Noroeste 1 -- -- 88
2019-08-18 14:00:00 18.2 4 Noroeste 13 Noroeste 0 -- -- 83
2019-08-18 13:00:00 19.3 6 Noroeste 19 Norte 0 -- -- 73
2019-08-18 12:00:00 19.9 3 Oeste 11 Oeste 0 -- -- 64
2019-08-18 11:00:00 21.2 9 Sudoeste 14 Sudoeste 0 -- -- 60
2019-08-18 10:00:00 18.2 4 Sudoeste 9 Oeste 0 -- -- 70
2019-08-18 09:00:00 16.1 3 Este 9 Nordeste 0 -- -- 72
2019-08-18 08:00:00 13.9 6 Nordeste 9 Nordeste 0 -- -- 75
2019-08-18 07:00:00 13.3 6 Nordeste 10 Este 0 -- -- 76
2019-08-18 06:00:00 13.4 0 Calma 5 Nordeste 0 -- -- 78
2019-08-18 05:00:00 13.3 0 Calma 5 Nordeste 0 -- -- 80
2019-08-18 04:00:00 13.4 3 Este 8 Este 0 -- -- 75
2019-08-18 03:00:00 14.4 5 Norte 15 Norte 0 -- -- 77
2019-08-18 02:00:00 15.6 4 Este 9 Sudoeste 0 -- -- 72
2019-08-18 01:00:00 16.7 3 Este 9 Este 0 -- -- 68
2019-08-18 00:00:00 18.3 3 Sudeste 9 Oeste 0 -- -- 60
2019-08-17 23:00:00 18.7 4 Sudeste 8 Sudeste 0 -- -- 53
2019-08-17 22:00:00 19.4 4 Este 9 Oeste 0 -- -- 49
2019-08-17 21:00:00 23.9 6 Oeste 21 Oeste 0 -- -- 36
2019-08-17 20:00:00 26.8 9 Oeste 26 Sudoeste 0 -- -- 33
2019-08-17 19:00:00 28.4 12 Sudoeste 33 Sur 0 -- -- 32
2019-08-17 18:00:00 29.8 11 Sudoeste 32 Sudoeste 0 -- -- 30
2019-08-17 17:00:00 29.9 10 Sudoeste 35 Sur 0 -- -- 28
2019-08-17 16:00:00 29.1 16 Sudoeste 34 Sur 0 -- -- 32
2019-08-17 15:00:00 28 22 Sudoeste 43 Sur 0 -- -- 38
2019-08-17 14:00:00 28.1 12 Sur 31 Sur 0 -- -- 37
2019-08-17 13:00:00 27.1 12 Sur 28 Sur 0 -- -- 37
2019-08-17 12:00:00 23.5 7 Sur 12 Sur 0 -- -- 46
2019-08-17 11:00:00 21.4 3 Sur 6 Sudoeste 0 -- -- 51
2019-08-17 10:00:00 19.8 3 Sur 9 Norte 0 -- -- 54
2019-08-17 09:00:00 16.3 3 Norte 12 Norte 0 -- -- 67
2019-08-17 08:00:00 11.2 6 Norte 13 Norte 0 -- -- 90
2019-08-17 07:00:00 11.1 8 Norte 12 Norte 0 -- -- 87
2019-08-17 06:00:00 12.5 2 Norte 13 Norte 0 -- -- 77
2019-08-17 05:00:00 12.7 7 Norte 12 Norte 0 -- -- 77
2019-08-17 04:00:00 13.5 4 Norte 12 Noroeste 0 -- -- 75
2019-08-17 03:00:00 14.2 5 Nordeste 9 Nordeste 0 -- -- 73
2019-08-17 02:00:00 13.8 3 Nordeste 8 Nordeste 0 -- -- 75
2019-08-17 01:00:00 15.7 4 Nordeste 10 Noroeste 0 -- -- 67
2019-08-17 00:00:00 16.5 4 Nordeste 16 Norte 0 -- -- 61
2019-08-16 23:00:00 19 0 Calma 13 Norte 0 -- -- 51
2019-08-16 22:00:00 20.6 0 Calma 15 Noroeste 0 -- -- 45
2019-08-16 21:00:00 23.8 4 Oeste 18 Sudoeste 0 -- -- 40
2019-08-16 20:00:00 27 8 Oeste 18 Oeste 0 -- -- 32
2019-08-16 19:00:00 29.1 7 Oeste 25 Sudoeste 0 -- -- 31
2019-08-16 18:00:00 30 10 Sudoeste 23 Sudoeste 0 -- -- 28
2019-08-16 17:00:00 31 5 Sudoeste 28 Sur 0 -- -- 27
2019-08-16 16:00:00 29.4 16 Sur 27 Sudoeste 0 -- -- 30
2019-08-16 15:00:00 29 16 Sur 24 Sur 0 -- -- 28
2019-08-16 14:00:00 27.6 13 Sur 18 Sudeste 0 -- -- 32
2019-08-16 13:00:00 26.6 7 Sur 14 Sur 0 -- -- 38
2019-08-16 12:00:00 24.2 5 Sudeste 11 Sudeste 0 -- -- 51
2019-08-16 11:00:00 20 4 Sudoeste 10 Noroeste 0 -- -- 62
2019-08-16 10:00:00 16.5 10 Norte 13 Norte 0 -- -- 73
2019-08-16 09:00:00 13.9 9 Norte 16 Norte 0 -- -- 87
2019-08-16 08:00:00 9.8 10 Norte 16 Norte 0 -- -- 100
2019-08-16 07:00:00 10 12 Norte 16 Norte 0 -- -- 100
2019-08-16 06:00:00 10.4 10 Norte 14 Norte 0 -- -- 100
2019-08-16 05:00:00 11.1 8 Norte 12 Norte 0 -- -- 100
2019-08-16 04:00:00 11.6 8 Norte 13 Norte 0 -- -- 100
2019-08-16 03:00:00 12.6 9 Norte 12 Norte 0 -- -- 97
2019-08-16 02:00:00 13.3 5 Noroeste 10 Norte 0 -- -- 93
2019-08-16 01:00:00 14 0 Calma 4 Este 0 -- -- 89
2019-08-16 00:00:00 14.3 2 Nordeste 11 Norte 0 -- -- 87
2019-08-15 23:00:00 16.3 2 Este 15 Noroeste 0 -- -- 78
2019-08-15 22:00:00 17.1 3 Norte 18 Noroeste 0 -- -- 76
2019-08-15 21:00:00 19.4 8 Noroeste 19 Noroeste 0 -- -- 67
2019-08-15 20:00:00 22.1 8 Noroeste 25 Noroeste 0 -- -- 59
2019-08-15 19:00:00 23.7 14 Noroeste 27 Norte 0 -- -- 54
2019-08-15 18:00:00 25.3 14 Norte 24 Noroeste 0 -- -- 49
2019-08-15 17:00:00 26.8 15 Norte 26 Norte 0 -- -- 43
2019-08-15 16:00:00 28.8 9 Noroeste 23 Oeste 0 -- -- 39
2019-08-15 15:00:00 28 8 Oeste 21 Noroeste 0 -- -- 39
2019-08-15 14:00:00 26.6 6 Sur 16 Sudoeste 0 -- -- 41
2019-08-15 13:00:00 26.8 8 Sudoeste 19 Oeste 0 -- -- 39
2019-08-15 12:00:00 23.3 6 Sudeste 10 Sudeste 0 -- -- 46
2019-08-15 11:00:00 20.3 4 Sur 8 Sudoeste 0 -- -- 42
2019-08-15 10:00:00 19.3 4 Norte 12 Norte 0 -- -- 46
2019-08-15 09:00:00 15 6 Norte 17 Norte 0 -- -- 65
2019-08-15 08:00:00 10.1 4 Norte 14 Noroeste 0 -- -- 83
2019-08-15 07:00:00 10.7 9 Norte 15 Nordeste 0 -- -- 83
2019-08-15 06:00:00 10.3 12 Norte 17 Norte 0 -- -- 94
2019-08-15 05:00:00 10.4 7 Nordeste 11 Nordeste 0 -- -- 98
2019-08-15 04:00:00 11 5 Nordeste 10 Noroeste 0 -- -- 95
2019-08-15 03:00:00 12.4 3 Norte 14 Norte 0 -- -- 96
2019-08-15 02:00:00 13.5 2 Noroeste 14 Noroeste 0 -- -- 85
2019-08-15 01:00:00 14.1 6 Norte 16 Noroeste 0 -- -- 91
2019-08-15 00:00:00 15.4 8 Norte 16 Noroeste 0 -- -- 88
2019-08-14 23:00:00 15.7 10 Norte 15 Norte 0 -- -- 88
2019-08-14 22:00:00 18.3 8 Norte 19 Norte 0 -- -- 76
2019-08-14 21:00:00 21.1 10 Noroeste 20 Noroeste 0 -- -- 64
2019-08-14 20:00:00 23.2 7 Noroeste 20 Noroeste 0 -- -- 55
2019-08-14 19:00:00 24.2 15 Norte 27 Norte 0 -- -- 53
2019-08-14 18:00:00 26.1 11 Norte 27 Noroeste 0 -- -- 48
2019-08-14 17:00:00 26.9 13 Nordeste 28 Nordeste 0 -- -- 45
2019-08-14 16:00:00 26.4 11 Noroeste 22 Noroeste 0 -- -- 48
2019-08-14 15:00:00 26.7 4 Sudoeste 10 Sur 0 -- -- 42
2019-08-14 14:00:00 24.6 8 Sur 14 Sur 0 -- -- 49
2019-08-14 13:00:00 23.7 8 Sur 10 Sur 0 -- -- 51
2019-08-14 12:00:00 22.9 4 Sudeste 10 Norte 0 -- -- 45
2019-08-14 11:00:00 19.5 3 Sur 8 Sudoeste 0 -- -- 53
2019-08-14 10:00:00 16.9 3 Sur 12 Norte 0 -- -- 66
2019-08-14 09:00:00 13.4 5 Norte 11 Norte 0 -- -- 84
2019-08-14 08:00:00 8.6 4 Norte 12 Norte 0 -- -- 100
2019-08-14 07:00:00 8.6 7 Norte 11 Norte 0 -- -- 100
2019-08-14 06:00:00 8.9 2 Nordeste 9 Noroeste 0 -- -- 100
2019-08-14 05:00:00 9.3 4 Este 11 Nordeste 0 -- -- 100
2019-08-14 04:00:00 10.3 0 Calma 13 Norte 0 -- -- 100
2019-08-14 03:00:00 10.8 3 Norte 8 Norte 0 -- -- 98
2019-08-14 02:00:00 11.6 2 Norte 10 Norte 0 -- -- 95
2019-08-14 01:00:00 12.9 6 Norte 12 Norte 0 -- -- 89
2019-08-14 00:00:00 12.7 2 Nordeste 9 Norte 0 -- -- 90
2019-08-13 23:00:00 13.5 2 Este 17 Norte 0 -- -- 80
2019-08-13 22:00:00 16.1 9 Noroeste 19 Noroeste 0 -- -- 71
2019-08-13 21:00:00 18.5 9 Noroeste 16 Noroeste 0 -- -- 59
2019-08-13 20:00:00 22.3 5 Oeste 27 Sur 0 -- -- 44
2019-08-13 19:00:00 23.6 13 Sudoeste 27 Sur 0 -- -- 29
2019-08-13 18:00:00 23 12 Sur 28 Sur 0 -- -- 34
2019-08-13 17:00:00 23.5 6 Sudeste 22 Sur 0 -- -- 36
2019-08-13 16:00:00 23.4 10 Sur 19 Sur 0 -- -- 39
2019-08-13 15:00:00 22.2 10 Sur 17 Sur 0 -- -- 36
2019-08-13 14:00:00 20.9 8 Sur 13 Sur 0 -- -- 38
2019-08-13 13:00:00 19 6 Sur 11 Sur 0 -- -- 50
2019-08-13 12:00:00 16.7 5 Sur 9 Sur 0 -- -- 60
2019-08-13 11:00:00 14.6 4 Sudoeste 9 Oeste 0 -- -- 68
2019-08-13 10:00:00 10.9 3 Oeste 8 Norte 0 -- -- 87
2019-08-13 09:00:00 8.5 4 Norte 8 Norte 0 -- -- 100
2019-08-13 08:00:00 6.3 3 Nordeste 6 Nordeste 0 -- -- 100
2019-08-13 07:00:00 5.7 4 Nordeste 6 Este 0 -- -- 100
2019-08-13 06:00:00 6 3 Nordeste 5 Norte 0 -- -- 100
2019-08-13 05:00:00 6.8 3 Nordeste 7 Noroeste 0 -- -- 100
2019-08-13 04:00:00 6.9 4 Este 8 Norte 0 -- -- 100
2019-08-13 03:00:00 7.7 4 Norte 8 Norte 0 -- -- 98
2019-08-13 02:00:00 8.6 6 Norte 12 Noroeste 0 -- -- 92
2019-08-13 01:00:00 10.3 8 Noroeste 16 Noroeste 0 -- -- 86
2019-08-13 00:00:00 10.3 12 Norte 21 Norte 0 -- -- 85
2019-08-12 23:00:00 10.6 13 Norte 26 Norte 0 -- -- 85
2019-08-12 22:00:00 11.2 14 Norte 26 Norte 0 -- -- 81
2019-08-12 21:00:00 12.2 18 Norte 26 Norte 0 -- -- 71
2019-08-12 20:00:00 14.2 10 Norte 24 Norte 0 -- -- 63
2019-08-12 19:00:00 14.1 12 Norte 25 Noroeste 0 -- -- 62
2019-08-12 18:00:00 14.7 17 Norte 34 Nordeste 0 -- -- 60
2019-08-12 17:00:00 16.2 18 Nordeste 31 Norte 0 -- -- 52
2019-08-12 16:00:00 18.7 16 Nordeste 28 Nordeste 0 -- -- 43
2019-08-12 15:00:00 18.4 14 Norte 30 Nordeste 0 -- -- 42
2019-08-12 14:00:00 15.9 7 Norte 23 Norte 0 -- -- 48
2019-08-12 13:00:00 16.8 6 Sudoeste 25 Norte 0 -- -- 46
2019-08-12 12:00:00 16.2 14 Nordeste 26 Nordeste 0 -- -- 50
2019-08-12 11:00:00 15.3 10 Nordeste 19 Norte 0 -- -- 49
2019-08-12 10:00:00 13.2 8 Noroeste 19 Norte 0 -- -- 55
2019-08-12 09:00:00 12.1 7 Norte 13 Noroeste 0 -- -- 64
2019-08-12 08:00:00 7.3 5 Noroeste 13 Norte 0 -- -- 86
2019-08-12 07:00:00 7 3 Noroeste 11 Noroeste 0 -- -- 91
2019-08-12 06:00:00 6 8 Norte 13 Noroeste 0 -- -- 91
2019-08-12 05:00:00 6.5 4 Norte 11 Noroeste 0 -- -- 91
2019-08-12 04:00:00 7.4 6 Noroeste 17 Oeste 0 -- -- 87
2019-08-12 03:00:00 7.9 6 Noroeste 17 Noroeste 0 -- -- 87
2019-08-12 02:00:00 8.7 7 Noroeste 18 Noroeste 0 -- -- 81
2019-08-12 01:00:00 9.2 7 Noroeste 22 Noroeste 0 -- -- 79
2019-08-12 00:00:00 10 9 Noroeste 23 Noroeste 0 -- -- 73
2019-08-11 23:00:00 10.6 11 Noroeste 33 Norte 0 -- -- 67
2019-08-11 22:00:00 10.8 13 Norte 22 Norte 0 -- -- 71
2019-08-11 21:00:00 12.4 8 Noroeste 33 Norte 0 -- -- 67
2019-08-11 20:00:00 13 14 Norte 35 Nordeste 0 -- -- 66
2019-08-11 19:00:00 13.6 20 Nordeste 34 Noroeste 0 -- -- 69
2019-08-11 18:00:00 14.4 19 Nordeste 35 Norte 0 -- -- 64
2019-08-11 17:00:00 16.3 13 Nordeste 29 Norte 0 -- -- 57
2019-08-11 16:00:00 17.3 17 Norte 35 Norte 0 -- -- 53
2019-08-11 15:00:00 19 6 Noroeste 21 Noroeste 0 -- -- 46
2019-08-11 14:00:00 20.6 7 Norte 20 Norte 0 -- -- 43
2019-08-11 13:00:00 18.8 12 Norte 19 Norte 0 -- -- 50
2019-08-11 12:00:00 19.4 5 Norte 13 Norte 0 -- -- 49
2019-08-11 11:00:00 17 6 Sudoeste 13 Oeste 0 -- -- 61
2019-08-11 10:00:00 16.1 5 Oeste 11 Norte 0 -- -- 69
2019-08-11 09:00:00 11.9 3 Norte 9 Noroeste 0 -- -- 90
2019-08-11 08:00:00 10.8 3 Norte 7 Nordeste 0 -- -- 96
2019-08-11 07:00:00 9.6 2 Norte 11 Norte 0 -- -- 97
2019-08-11 06:00:00 10.4 2 Noroeste 9 Norte 0 -- -- 95
2019-08-11 05:00:00 10.7 5 Nordeste 7 Nordeste 0 -- -- 94
2019-08-11 04:00:00 11.7 2 Norte 13 Norte 0 -- -- 91
2019-08-11 03:00:00 12 3 Noroeste 21 Noroeste 0 -- -- 88
2019-08-11 02:00:00 12.1 7 Noroeste 14 Noroeste 0 -- -- 89
2019-08-11 01:00:00 12.4 8 Norte 19 Noroeste 0 -- -- 84
2019-08-11 00:00:00 12.9 13 Norte 20 Norte 0 -- -- 82
2019-08-10 23:00:00 12.9 10 Norte 19 Norte 0 -- -- 85
2019-08-10 22:00:00 13.2 12 Norte 23 Norte 0 -- -- 84
2019-08-10 21:00:00 14.3 14 Norte 29 Norte 0 -- -- 79
2019-08-10 20:00:00 16.5 15 Norte 24 Norte 0 -- -- 68
2019-08-10 19:00:00 19.3 12 Noroeste 25 Noroeste 0 -- -- 55
2019-08-10 18:00:00 23 11 Sudoeste 26 Oeste 0 -- -- 38
2019-08-10 17:00:00 23.6 11 Sudoeste 36 Sur 0 -- -- 30
2019-08-10 16:00:00 22.5 17 Sudoeste 36 Sur 0 -- -- 35
2019-08-10 15:00:00 22 13 Sur 22 Sur 0 -- -- 40
2019-08-10 14:00:00 20.8 8 Sudoeste 13 Sudoeste 0 -- -- 34
2019-08-10 13:00:00 19.4 9 Sur 14 Sudoeste 0 -- -- 37
2019-08-10 12:00:00 18.5 8 Sudoeste 12 Sudoeste 0 -- -- 46
2019-08-10 11:00:00 17.2 7 Sudoeste 12 Sudoeste 0 -- -- 54
2019-08-10 10:00:00 16.3 3 Este 17 Oeste 0 -- -- 57
2019-08-10 09:00:00 13.6 4 Nordeste 8 Norte 0 -- -- 70
2019-08-10 08:00:00 8.4 3 Nordeste 8 Este 0 -- -- 93
2019-08-10 07:00:00 9.1 2 Este 12 Oeste 0 -- -- 86
2019-08-10 06:00:00 11.2 0 Calma 12 Noroeste 0 -- -- 82
2019-08-10 05:00:00 11 4 Nordeste 10 Este 0 -- -- 85
2019-08-10 04:00:00 11.7 6 Sur 13 Sur 0 -- -- 85
2019-08-10 03:00:00 11.9 2 Nordeste 9 Oeste 0 -- -- 79
2019-08-10 02:00:00 12.5 4 Oeste 9 Oeste 0 -- -- 75
2019-08-10 01:00:00 13.1 3 Oeste 11 Sudoeste 0 -- -- 75
2019-08-10 00:00:00 14 10 Sudoeste 23 Sur 0 -- -- 71
2019-08-09 23:00:00 14.3 11 Sudoeste 31 Sudoeste 0 -- -- 70
2019-08-09 22:00:00 15.4 18 Sudoeste 27 Sur 0 -- -- 63
2019-08-09 21:00:00 16.3 15 Sur 30 Sudoeste 0 -- -- 60
2019-08-09 20:00:00 16.9 5 Sur 36 Sur 0 -- -- 51
2019-08-09 19:00:00 17.5 9 Sudoeste 39 Sudoeste 0 -- -- 62
2019-08-09 18:00:00 17.8 23 Sur 47 Sudoeste 0 -- -- 59
2019-08-09 17:00:00 18.2 14 Sudoeste 48 Sur 0 -- -- 59
2019-08-09 16:00:00 18.5 27 Sudoeste 57 Oeste 0 -- -- 54
2019-08-09 15:00:00 21.3 27 Oeste 55 Sudoeste 0 -- -- 46
2019-08-09 14:00:00 21.9 19 Sudoeste 42 Oeste 0 -- -- 42
2019-08-09 13:00:00 20.6 20 Sudoeste 50 Sudoeste 0 -- -- 47
2019-08-09 12:00:00 19.2 11 Sudoeste 42 Sur 0 -- -- 51
2019-08-09 11:00:00 17.9 26 Sudoeste 43 Sudoeste 0 -- -- 58
2019-08-09 10:00:00 19.3 13 Sudoeste 43 Sudoeste 0 -- -- 53
2019-08-09 09:00:00 17.6 26 Sur 44 Sur 0 -- -- 68
2019-08-09 08:00:00 17 19 Sudoeste 48 Oeste 0.2 -- -- 84
2019-08-09 07:00:00 17 17 Sudoeste 49 Sur 0.6 -- -- 100
2019-08-09 06:00:00 17 22 Sur 45 Sur 0.6 -- -- 100
2019-08-09 05:00:00 17.1 21 Sur 56 Sur 0.4 -- -- 100
2019-08-09 04:00:00 17.3 24 Sur 50 Sur 0 -- -- 99
2019-08-09 03:00:00 18.1 24 Sur 50 Sur 0 -- -- 93
2019-08-09 02:00:00 18.5 27 Sur 49 Sur 0 -- -- 87
2019-08-09 01:00:00 18.8 21 Sur 45 Sur 0 -- -- 84
2019-08-09 00:00:00 19.7 27 Sur 50 Sur 0 -- -- 77
2019-08-08 23:00:00 19.8 20 Sur 37 Sur 0 -- -- 75
2019-08-08 22:00:00 19.8 19 Sur 35 Sur 0 -- -- 88
2019-08-08 21:00:00 20.5 18 Sudoeste 51 Sur 0 -- -- 83
2019-08-08 20:00:00 21.5 28 Sur 46 Sur 0 -- -- 77
2019-08-08 19:00:00 20.2 14 Sur 66 Sur 0 -- -- 90
2019-08-08 18:00:00 20.5 34 Sur 56 Sudoeste 0.4 -- -- 86
2019-08-08 17:00:00 20.2 23 Sudeste 45 Sudeste 0.4 -- -- 90
2019-08-08 16:00:00 19.3 17 Sudeste 39 Sur 0 -- -- 97
2019-08-08 15:00:00 18.7 12 Sudeste 27 Sur 0 -- -- 95
2019-08-08 14:00:00 17.8 10 Sur 29 Sur 0 -- -- 99
2019-08-08 13:00:00 17 17 Sur 28 Sur 0.2 -- -- 100
2019-08-08 12:00:00 15.5 12 Sur 25 Sur 0 -- -- 100
2019-08-08 11:00:00 15.4 11 Sur 24 Sur 0 -- -- 100
2019-08-08 10:00:00 14.9 7 Sudeste 20 Sur 0 -- -- 100
2019-08-08 09:00:00 15 8 Sur 24 Sur 0 -- -- 100
2019-08-08 08:00:00 15.3 15 Sur 22 Sur 0.2 -- -- 100
2019-08-08 07:00:00 15.4 12 Sur 24 Sudoeste 0 -- -- 100
2019-08-08 06:00:00 15.7 15 Sur 26 Sur 0 -- -- 100
2019-08-08 05:00:00 15.8 9 Sudoeste 22 Sudoeste 0 -- -- 100
2019-08-08 04:00:00 15.5 12 Sur 19 Sur 0 -- -- 100
2019-08-08 03:00:00 15.2 10 Sudoeste 20 Sur 0.4 -- -- 100
2019-08-08 02:00:00 15.8 9 Sur 15 Sur 0 -- -- 100
2019-08-08 01:00:00 16.2 10 Sudoeste 21 Sudoeste 0 -- -- 99
2019-08-08 00:00:00 16.5 15 Sur 19 Sudoeste 0 -- -- 97
2019-08-07 23:00:00 16.5 6 Este 16 Este 0 -- -- 93
2019-08-07 22:00:00 16.2 10 Sur 17 Sur 0 -- -- 95
2019-08-07 21:00:00 17.6 9 Sur 17 Sur 0 -- -- 81
2019-08-07 20:00:00 17.8 4 Sur 15 Sur 0 -- -- 82
2019-08-07 19:00:00 17.9 14 Sur 19 Sur 0 -- -- 78
2019-08-07 18:00:00 18.4 15 Sur 24 Sur 0 -- -- 80
2019-08-07 17:00:00 20.5 16 Sur 26 Sur 0 -- -- 62
2019-08-07 16:00:00 21.3 12 Sur 30 Sur 0 -- -- 57
2019-08-07 15:00:00 20.7 18 Sur 30 Sur 0 -- -- 56
2019-08-07 14:00:00 21 17 Sur 28 Sur 0 -- -- 55
2019-08-07 13:00:00 21 17 Sur 35 Sur 0 -- -- 56
2019-08-07 12:00:00 22.4 10 Sur 25 Sur 0 -- -- 49
2019-08-07 11:00:00 19.1 5 Sur 8 Sur 0 -- -- 60
2019-08-07 10:00:00 18.1 3 Sur 10 Nordeste 0 -- -- 66
2019-08-07 09:00:00 15 8 Nordeste 11 Norte 0 -- -- 84
2019-08-07 08:00:00 11.8 5 Noroeste 14 Norte 0 -- -- 95
2019-08-07 07:00:00 11.2 4 Norte 10 Norte 0 -- -- 97
2019-08-07 06:00:00 12 4 Nordeste 9 Norte 0 -- -- 93
2019-08-07 05:00:00 12.6 3 Norte 8 Norte 0 -- -- 94
2019-08-07 04:00:00 13.5 3 Norte 9 Norte 0 -- -- 94
2019-08-07 03:00:00 14.4 5 Norte 8 Norte 0 -- -- 95
2019-08-07 02:00:00 14.6 4 Nordeste 9 Nordeste 0 -- -- 95
2019-08-07 01:00:00 14.6 5 Norte 9 Norte 0 -- -- 98
2019-08-07 00:00:00 14.9 3 Nordeste 6 Norte 0 -- -- 99
2019-08-06 23:00:00 15.4 8 Nordeste 12 Nordeste 0 -- -- 100
2019-08-06 22:00:00 15.5 9 Nordeste 14 Nordeste 0.4 -- -- 100
2019-08-06 21:00:00 16.2 4 Noroeste 22 Norte 0.6 -- -- 96
2019-08-06 20:00:00 18.5 15 Norte 25 Norte 0 -- -- 77
2019-08-06 19:00:00 21.4 13 Norte 23 Norte 0 -- -- 62
2019-08-06 18:00:00 25.3 10 Oeste 25 Sur 0 -- -- 37
2019-08-06 17:00:00 26.2 15 Sudoeste 31 Oeste 0 -- -- 38
2019-08-06 16:00:00 24.1 15 Sudoeste 34 Sudoeste 0 -- -- 48
2019-08-06 15:00:00 25.3 22 Sur 32 Sur 0 -- -- 40
2019-08-06 14:00:00 25.9 13 Sudeste 24 Sur 0 -- -- 44
2019-08-06 13:00:00 22.4 13 Sur 24 Sur 0 -- -- 55
2019-08-06 12:00:00 22.5 5 Sur 10 Sur 0 -- -- 61
2019-08-06 11:00:00 18.6 3 Sudoeste 7 Sudoeste 0 -- -- 75
2019-08-06 10:00:00 18 3 Norte 14 Noroeste 0 -- -- 80
2019-08-06 09:00:00 14.4 4 Noroeste 14 Norte 0 -- -- 97
2019-08-06 08:00:00 11.8 7 Norte 13 Norte 0 -- -- 100
2019-08-06 07:00:00 12 5 Norte 14 Norte 0 -- -- 100
2019-08-06 06:00:00 12.1 3 Noroeste 10 Noroeste 0 -- -- 100
2019-08-06 05:00:00 12.8 3 Nordeste 11 Noroeste 0 -- -- 100
2019-08-06 04:00:00 13.3 4 Este 10 Norte 0 -- -- 100
2019-08-06 03:00:00 14 0 Calma 10 Norte 0 -- -- 100
2019-08-06 02:00:00 14.3 6 Nordeste 10 Norte 0 -- -- 100
2019-08-06 01:00:00 14.8 4 Norte 6 Norte 0 -- -- 99
2019-08-06 00:00:00 16 0 Calma 11 Noroeste 0 -- -- 90
2019-08-05 23:00:00 17.9 3 Oeste 19 Noroeste 0 -- -- 81
2019-08-05 22:00:00 18.8 7 Noroeste 21 Noroeste 0 -- -- 78
2019-08-05 21:00:00 21.3 12 Noroeste 27 Norte 0 -- -- 66
2019-08-05 20:00:00 25.6 5 Noroeste 19 Noroeste 0 -- -- 52
2019-08-05 19:00:00 26.7 5 Noroeste 27 Noroeste 0 -- -- 48
2019-08-05 18:00:00 28.5 8 Oeste 30 Sur 0 -- -- 41
2019-08-05 17:00:00 30.2 7 Sudoeste 23 Sur 0 -- -- 34
2019-08-05 16:00:00 28.6 4 Este 19 Sur 0 -- -- 34
2019-08-05 15:00:00 27.7 12 Sur 22 Sur 0 -- -- 38
2019-08-05 14:00:00 26.4 8 Sur 14 Sur 0 -- -- 37
2019-08-05 13:00:00 24.7 10 Sur 13 Sur 0 -- -- 42
2019-08-05 12:00:00 22.7 6 Sur 9 Sur 0 -- -- 54
2019-08-05 11:00:00 19.6 4 Sur 9 Sudoeste 0 -- -- 61
2019-08-05 10:00:00 18.2 4 Norte 10 Norte 0 -- -- 66
2019-08-05 09:00:00 13.7 9 Norte 13 Norte 0 -- -- 86
2019-08-05 08:00:00 9.8 5 Nordeste 13 Norte 0 -- -- 100
2019-08-05 07:00:00 9.9 8 Norte 12 Norte 0 -- -- 100
2019-08-05 06:00:00 10.6 8 Norte 13 Noroeste 0 -- -- 100
2019-08-05 05:00:00 11.5 5 Norte 10 Norte 0 -- -- 100
2019-08-05 04:00:00 12.3 3 Norte 8 Norte 0 -- -- 100
2019-08-05 03:00:00 13 3 Norte 11 Nordeste 0 -- -- 100
2019-08-05 02:00:00 13.5 4 Nordeste 10 Noroeste 0 -- -- 100
2019-08-05 01:00:00 13.6 3 Nordeste 7 Norte 0 -- -- 98
2019-08-05 00:00:00 14.3 2 Norte 12 Noroeste 0 -- -- 94
2019-08-04 23:00:00 16.4 5 Noroeste 17 Noroeste 0 -- -- 88
2019-08-04 22:00:00 17.8 9 Noroeste 26 Noroeste 0 -- -- 82
2019-08-04 21:00:00 19.3 12 Noroeste 26 Noroeste 0 -- -- 75
2019-08-04 20:00:00 22.1 16 Noroeste 31 Noroeste 0 -- -- 60
2019-08-04 19:00:00 27.3 14 Sudoeste 25 Noroeste 0 -- -- 40
2019-08-04 18:00:00 28.3 10 Sur 30 Sur 0 -- -- 39
2019-08-04 17:00:00 27.9 15 Sudoeste 26 Sur 0 -- -- 39
2019-08-04 16:00:00 27.1 18 Sur 33 Sur 0 -- -- 41
2019-08-04 15:00:00 27.2 18 Sur 35 Sur 0 -- -- 41
2019-08-04 14:00:00 26.7 17 Sur 33 Sur 0 -- -- 40
2019-08-04 13:00:00 25.7 13 Sudeste 27 Sur 0 -- -- 47
2019-08-04 12:00:00 24.5 9 Sur 14 Sur 0 -- -- 51
2019-08-04 11:00:00 22.3 2 Sur 6 Sudoeste 0 -- -- 62
2019-08-04 10:00:00 19 3 Sur 10 Norte 0 -- -- 73
2019-08-04 09:00:00 15.6 9 Norte 14 Norte 0 -- -- 89
2019-08-04 08:00:00 11.8 9 Norte 14 Norte 0 -- -- 100
2019-08-04 07:00:00 11.6 6 Norte 11 Norte 0 -- -- 100
2019-08-04 06:00:00 12.4 9 Nordeste 12 Nordeste 0 -- -- 100
2019-08-04 05:00:00 13 7 Norte 10 Norte 0 -- -- 100
2019-08-04 04:00:00 13.1 5 Norte 9 Norte 0 -- -- 100
2019-08-04 03:00:00 14 3 Norte 12 Nordeste 0 -- -- 100
2019-08-04 02:00:00 14.3 3 Nordeste 9 Norte 0 -- -- 93
2019-08-04 01:00:00 17.1 3 Oeste 19 Noroeste 0 -- -- 84
2019-08-04 00:00:00 18 6 Noroeste 18 Oeste 0 -- -- 78
2019-08-03 23:00:00 18.7 8 Noroeste 17 Noroeste 0 -- -- 77
2019-08-03 22:00:00 19.5 9 Noroeste 19 Noroeste 0 -- -- 72
2019-08-03 21:00:00 21.1 13 Norte 32 Norte 0 -- -- 65
2019-08-03 20:00:00 23.4 11 Noroeste 32 Norte 0 -- -- 57
2019-08-03 19:00:00 25.1 15 Noroeste 31 Norte 0 -- -- 52
2019-08-03 18:00:00 27.9 10 Norte 25 Sudoeste 0 -- -- 41
2019-08-03 17:00:00 29.6 18 Sur 32 Sur 0 -- -- 28
2019-08-03 16:00:00 30.4 9 Sudoeste 25 Sur 0 -- -- 24
2019-08-03 15:00:00 29.6 14 Sudoeste 26 Sudoeste 0 -- -- 28
2019-08-03 14:00:00 28.1 12 Sur 22 Sur 0 -- -- 31
2019-08-03 13:00:00 27.4 7 Sur 13 Sur 0 -- -- 37
2019-08-03 12:00:00 25.3 6 Sur 9 Sur 0 -- -- 44
2019-08-03 11:00:00 22.2 3 Sudoeste 7 Sudoeste 0 -- -- 56
2019-08-03 10:00:00 19.1 4 Sudoeste 11 Norte 0 -- -- 67
2019-08-03 09:00:00 17.8 2 Norte 15 Norte 0 -- -- 69
2019-08-03 08:00:00 11.6 10 Norte 13 Norte 0 -- -- 100
2019-08-03 07:00:00 11.5 7 Norte 12 Norte 0 -- -- 100
2019-08-03 06:00:00 12.2 7 Norte 10 Norte 0 -- -- 99
2019-08-03 05:00:00 12.4 6 Norte 10 Norte 0 -- -- 92
2019-08-03 04:00:00 13.1 3 Norte 9 Noroeste 0 -- -- 83
2019-08-03 03:00:00 14.5 0 Calma 8 Este 0 -- -- 74
2019-08-03 02:00:00 14.3 4 Nordeste 10 Nordeste 0 -- -- 75
2019-08-03 01:00:00 15.3 4 Este 12 Norte 0 -- -- 67
2019-08-03 00:00:00 15.4 5 Nordeste 9 Norte 0 -- -- 64
2019-08-02 23:00:00 17.5 6 Norte 10 Norte 0 -- -- 59
2019-08-02 22:00:00 19.3 6 Norte 16 Noroeste 0 -- -- 59
2019-08-02 21:00:00 21.7 10 Noroeste 22 Noroeste 0 -- -- 54
2019-08-02 20:00:00 24.2 10 Noroeste 23 Norte 0 -- -- 45
2019-08-02 19:00:00 26.1 12 Noroeste 25 Noroeste 0 -- -- 41
2019-08-02 18:00:00 28.5 11 Noroeste 22 Noroeste 0 -- -- 37
2019-08-02 17:00:00 28.4 7 Sudoeste 13 Sudoeste 0 -- -- 34
2019-08-02 16:00:00 28.4 11 Sudoeste 17 Sur 0 -- -- 37
2019-08-02 15:00:00 27.2 10 Sur 15 Sudoeste 0 -- -- 35
2019-08-02 14:00:00 26.9 6 Sur 12 Sudoeste 0 -- -- 36
2019-08-02 13:00:00 25.6 8 Sur 15 Sur 0 -- -- 37
2019-08-02 12:00:00 24 4 Sur 9 Sur 0 -- -- 45
2019-08-02 11:00:00 19.8 4 Sudoeste 6 Sudoeste 0 -- -- 55
2019-08-02 10:00:00 18.3 2 Este 14 Norte 0 -- -- 62
2019-08-02 09:00:00 13.4 10 Norte 15 Norte 0 -- -- 79
2019-08-02 08:00:00 9 9 Norte 14 Norte 0 -- -- 100
2019-08-02 07:00:00 9.1 9 Norte 14 Norte 0 -- -- 100
2019-08-02 06:00:00 9.6 9 Norte 13 Norte 0 -- -- 100
2019-08-02 05:00:00 10 6 Norte 13 Norte 0 -- -- 100
2019-08-02 04:00:00 10.5 6 Norte 10 Norte 0 -- -- 98
2019-08-02 03:00:00 11.2 6 Norte 10 Norte 0 -- -- 98
2019-08-02 02:00:00 12.2 3 Norte 10 Norte 0 -- -- 94
2019-08-02 01:00:00 12.6 2 Nordeste 11 Noroeste 0 -- -- 90
2019-08-02 00:00:00 13.7 5 Norte 17 Noroeste 0 -- -- 80
2019-08-01 23:00:00 15.4 8 Noroeste 21 Noroeste 0 -- -- 76
2019-08-01 22:00:00 16.4 9 Norte 23 Noroeste 0 -- -- 69
2019-08-01 21:00:00 18.3 15 Noroeste 25 Noroeste 0 -- -- 60
2019-08-01 20:00:00 21.3 14 Noroeste 32 Norte 0 -- -- 46
2019-08-01 19:00:00 22.8 18 Norte 32 Noroeste 0 -- -- 40
2019-08-01 18:00:00 25 13 Norte 24 Norte 0 -- -- 38
2019-08-01 17:00:00 24.8 15 Norte 23 Norte 0 -- -- 36
2019-08-01 16:00:00 22.9 15 Norte 23 Nordeste 0 -- -- 39
2019-08-01 15:00:00 27.5 5 Sudoeste 14 Sudoeste 0 -- -- 34
2019-08-01 14:00:00 25.6 5 Sudoeste 10 Sur 0 -- -- 32
2019-08-01 13:00:00 24.4 6 Sur 9 Sur 0 -- -- 37
2019-08-01 12:00:00 23.6 3 Sudoeste 7 Sudoeste 0 -- -- 42
2019-08-01 11:00:00 19.3 4 Sudoeste 8 Norte 0 -- -- 58
2019-08-01 10:00:00 18.6 3 Norte 9 Norte 0 -- -- 62
2019-08-01 09:00:00 13.7 7 Norte 14 Norte 0 -- -- 84
2019-08-01 08:00:00 9.2 6 Norte 12 Norte 0 -- -- 100
2019-08-01 07:00:00 9.2 6 Norte 13 Norte 0 -- -- 100
2019-08-01 06:00:00 9 3 Norte 15 Norte 0 -- -- 100
2019-08-01 05:00:00 10.1 9 Nordeste 14 Norte 0 -- -- 100
2019-08-01 04:00:00 10.4 6 Nordeste 9 Norte 0 -- -- 98
2019-08-01 03:00:00 11.2 5 Norte 9 Norte 0 -- -- 94
2019-08-01 02:00:00 11.7 3 Norte 9 Nordeste 0 -- -- 91
2019-08-01 01:00:00 12.2 4 Nordeste 10 Noroeste 0 -- -- 87
2019-08-01 00:00:00 13.7 6 Norte 17 Noroeste 0 -- -- 83
2019-07-31 23:00:00 14.4 9 Noroeste 18 Noroeste 0 -- -- 80
2019-07-31 22:00:00 15.6 5 Noroeste 24 Noroeste 0 -- -- 71
2019-07-31 21:00:00 17.3 13 Noroeste 25 Noroeste 0 -- -- 64
2019-07-31 20:00:00 21.9 8 Noroeste 19 Noroeste 0 -- -- 47
2019-07-31 19:00:00 24.4 6 Sudoeste 18 Sur 0 -- -- 40
2019-07-31 18:00:00 23.5 14 Sur 21 Sur 0 -- -- 34
2019-07-31 17:00:00 23.4 7 Sur 26 Sur 0 -- -- 38
2019-07-31 16:00:00 24.1 12 Sudoeste 19 Sudoeste 0 -- -- 37
2019-07-31 15:00:00 23.4 9 Sudoeste 21 Sur 0 -- -- 34
2019-07-31 14:00:00 22.6 4 Sur 10 Sur 0 -- -- 35
2019-07-31 13:00:00 21.5 4 Sur 9 Sur 0 -- -- 36
2019-07-31 12:00:00 18.8 4 Sur 8 Sudoeste 0 -- -- 55
2019-07-31 11:00:00 16.9 5 Sudoeste 8 Sudoeste 0 -- -- 68
2019-07-31 10:00:00 15.6 3 Sur 10 Noroeste 0 -- -- 71
2019-07-31 09:00:00 10.6 5 Nordeste 7 Nordeste 0 -- -- 96
2019-07-31 08:00:00 8.1 0 Calma 7 Este 0 -- -- 100
2019-07-31 07:00:00 7.4 2 Este 7 Nordeste 0 -- -- 100
2019-07-31 06:00:00 7.5 3 Este 6 Este 0 -- -- 100
2019-07-31 05:00:00 7.8 2 Nordeste 6 Norte 0 -- -- 100
2019-07-31 04:00:00 8.6 0 Calma 9 Norte 0 -- -- 100
2019-07-31 03:00:00 9.1 2 Nordeste 6 Norte 0 -- -- 98
2019-07-31 02:00:00 9.1 4 Norte 10 Norte 0 -- -- 97
2019-07-31 01:00:00 9.1 6 Norte 11 Norte 0 -- -- 96
2019-07-31 00:00:00 9.7 6 Norte 17 Norte 0 -- -- 90
2019-07-30 23:00:00 10.9 8 Norte 17 Noroeste 0 -- -- 87
2019-07-30 22:00:00 11.9 13 Noroeste 28 Noroeste 0 -- -- 81
2019-07-30 21:00:00 14 14 Noroeste 25 Noroeste 0 -- -- 71
2019-07-30 20:00:00 16.7 13 Noroeste 28 Noroeste 0 -- -- 59
2019-07-30 19:00:00 18.6 15 Noroeste 27 Noroeste 0 -- -- 52
2019-07-30 18:00:00 20.1 12 Noroeste 24 Norte 0 -- -- 46
2019-07-30 17:00:00 21.1 12 Noroeste 26 Norte 0 -- -- 41
2019-07-30 16:00:00 21.6 9 Sudoeste 15 Sudoeste 0 -- -- 41
2019-07-30 15:00:00 20.5 4 Sudoeste 13 Sudoeste 0 -- -- 38
2019-07-30 14:00:00 17.9 8 Sur 13 Sudoeste 0 -- -- 44
2019-07-30 13:00:00 17.6 10 Sudoeste 17 Sudoeste 0 -- -- 44
2019-07-30 12:00:00 17.6 5 Oeste 16 Oeste 0 -- -- 46
2019-07-30 11:00:00 15.9 7 Noroeste 19 Noroeste 0 -- -- 52
2019-07-30 10:00:00 14.4 11 Noroeste 20 Noroeste 0 -- -- 56
2019-07-30 09:00:00 13.1 6 Noroeste 14 Noroeste 0 -- -- 63
2019-07-30 08:00:00 6.4 6 Noroeste 10 Noroeste 0 -- -- 88
2019-07-30 07:00:00 6.2 8 Norte 15 Norte 0 -- -- 88
2019-07-30 06:00:00 7.2 9 Norte 14 Noroeste 0 -- -- 84
2019-07-30 05:00:00 8.6 9 Norte 20 Noroeste 0 -- -- 75
2019-07-30 04:00:00 9.2 6 Noroeste 31 Noroeste 0 -- -- 75
2019-07-30 03:00:00 9.6 8 Noroeste 27 Noroeste 0 -- -- 71
2019-07-30 02:00:00 10 5 Oeste 25 Noroeste 0 -- -- 68
2019-07-30 01:00:00 10.7 4 Noroeste 20 Noroeste 0 -- -- 75
2019-07-30 00:00:00 11.4 10 Noroeste 24 Oeste 0 -- -- 71
2019-07-29 23:00:00 12.1 5 Noroeste 22 Noroeste 0 -- -- 67
2019-07-29 22:00:00 13.3 9 Noroeste 32 Noroeste 0 -- -- 59
2019-07-29 21:00:00 15.3 10 Noroeste 30 Noroeste 0 -- -- 52
2019-07-29 20:00:00 17.9 11 Oeste 31 Norte 0 -- -- 45
2019-07-29 19:00:00 19.7 9 Oeste 29 Noroeste 0 -- -- 39
2019-07-29 18:00:00 20.9 12 Oeste 28 Oeste 0 -- -- 38
2019-07-29 17:00:00 22 9 Oeste 24 Noroeste 0 -- -- 38
2019-07-29 16:00:00 22.3 8 Oeste 25 Sudoeste 0 -- -- 37
2019-07-29 15:00:00 22.2 11 Oeste 35 Sur 0 -- -- 32
2019-07-29 14:00:00 19.8 19 Sudoeste 34 Sur 0 -- -- 47
2019-07-29 13:00:00 18.5 26 Sur 33 Sur 0 -- -- 54
2019-07-29 12:00:00 18.4 21 Sudoeste 32 Sudoeste 0 -- -- 58
2019-07-29 11:00:00 16.9 19 Sudoeste 29 Sur 0 -- -- 67
2019-07-29 10:00:00 16.2 2 Sudoeste 7 Sudoeste 0 -- -- 75
2019-07-29 09:00:00 15 0 Calma 4 Este 0 -- -- 77
2019-07-29 08:00:00 9.8 2 Este 7 Nordeste 0 -- -- 99
2019-07-29 07:00:00 9.5 4 Nordeste 6 Este 0 -- -- 99
2019-07-29 06:00:00 9.6 3 Nordeste 6 Este 0 -- -- 95
2019-07-29 05:00:00 10.2 4 Este 6 Nordeste 0 -- -- 91
2019-07-29 04:00:00 10.5 3 Nordeste 8 Norte 0 -- -- 88
2019-07-29 03:00:00 11.6 3 Nordeste 13 Norte 0 -- -- 84
2019-07-29 02:00:00 12.4 3 Nordeste 9 Norte 0 -- -- 79
2019-07-29 01:00:00 13.3 0 Calma 4 Este 0 -- -- 78
2019-07-29 00:00:00 14.4 0 Calma 6 Este 0 -- -- 69
2019-07-28 23:00:00 15.3 2 Sudeste 7 Este 0 -- -- 64
2019-07-28 22:00:00 18.2 3 Este 14 Sur 0 -- -- 52
2019-07-28 21:00:00 20.6 11 Sudoeste 23 Sudoeste 0 -- -- 44
2019-07-28 20:00:00 22 11 Sudoeste 28 Sur 0 -- -- 37
2019-07-28 19:00:00 23.1 10 Sudoeste 30 Sudoeste 0 -- -- 32
2019-07-28 18:00:00 23.6 16 Sudoeste 30 Sudoeste 0 -- -- 27
2019-07-28 17:00:00 23 15 Sudoeste 34 Sur 0 -- -- 33
2019-07-28 16:00:00 22.5 18 Sur 27 Sur 0 -- -- 36
2019-07-28 15:00:00 21.1 17 Sur 27 Sur 0 -- -- 49
2019-07-28 14:00:00 19.5 15 Sur 29 Sur 0 -- -- 52
2019-07-28 13:00:00 18.5 13 Sur 24 Sur 0 -- -- 55
2019-07-28 12:00:00 16.7 12 Sur 21 Sur 0 -- -- 59
2019-07-28 11:00:00 14.9 15 Sur 21 Sur 0 -- -- 66
2019-07-28 10:00:00 15.4 3 Sudeste 8 Sur 0 -- -- 67
2019-07-28 09:00:00 13 4 Norte 10 Norte 0 -- -- 77
2019-07-28 08:00:00 6.7 3 Nordeste 10 Norte 0 -- -- 100
2019-07-28 07:00:00 6.5 4 Nordeste 9 Norte 0 -- -- 100
2019-07-28 06:00:00 7.3 3 Nordeste 10 Norte 0 -- -- 100
2019-07-28 05:00:00 8.1 5 Norte 12 Norte 0 -- -- 94
2019-07-28 04:00:00 9.8 8 Norte 10 Norte 0 -- -- 88
2019-07-28 03:00:00 11 3 Norte 9 Nordeste 0 -- -- 85
2019-07-28 02:00:00 11.1 4 Norte 19 Nordeste 0 -- -- 81
2019-07-28 01:00:00 10.9 9 Nordeste 25 Nordeste 0 -- -- 84
2019-07-28 00:00:00 11.1 15 Nordeste 30 Nordeste 0 -- -- 83
2019-07-27 23:00:00 11.7 19 Nordeste 35 Nordeste 0 -- -- 81
2019-07-26 12:00:00 -- -- -- -- -- -- -- -- --
2019-07-26 11:00:00 -- -- -- -- -- -- -- -- --
2019-07-26 10:00:00 -- -- -- -- -- -- -- -- --
2019-07-26 09:00:00 -- -- -- -- -- -- -- -- --
2019-07-26 08:00:00 14.2 9 Oeste 21 Oeste 0 -- -- 89
2019-07-26 07:00:00 14.3 6 Oeste 17 Oeste 0 -- -- 93
2019-07-26 06:00:00 14.6 4 Oeste 17 Oeste 0 -- -- 93
2019-07-26 05:00:00 14.9 6 Noroeste 21 Noroeste 0 -- -- 91
2019-07-26 04:00:00 15.3 5 Noroeste 23 Noroeste 0 -- -- 90
2019-07-26 03:00:00 15.6 5 Noroeste 17 Noroeste 0 -- -- 89
2019-07-26 02:00:00 15.9 4 Noroeste 13 Oeste 0 -- -- 90
2019-07-26 01:00:00 16.1 0 Calma 17 Sudoeste 0 -- -- 90
2019-07-26 00:00:00 16.4 5 Noroeste 21 Noroeste 0 -- -- 88